sensor_id;sensor_type;location;lat;lon;timestamp;P1;durP1;ratioP1;P2;durP2;ratioP2
48897;SDS011;34713;50.038;20.000;2022-12-20T00:01:12;120.15;;;56.60;;
48897;SDS011;34713;50.038;20.000;2022-12-20T00:03:41;115.30;;;57.43;;
48897;SDS011;34713;50.038;20.000;2022-12-20T00:06:07;117.42;;;55.58;;
48897;SDS011;34713;50.038;20.000;2022-12-20T00:08:33;124.20;;;57.98;;
48897;SDS011;34713;50.038;20.000;2022-12-20T00:11:01;117.35;;;58.00;;
48897;SDS011;34713;50.038;20.000;2022-12-20T00:13:29;121.42;;;60.12;;
48897;SDS011;34713;50.038;20.000;2022-12-20T00:16:06;118.17;;;58.15;;
48897;SDS011;34713;50.038;20.000;2022-12-20T00:18:35;121.72;;;56.80;;
48897;SDS011;34713;50.038;20.000;2022-12-20T00:21:03;116.17;;;58.28;;
48897;SDS011;34713;50.038;20.000;2022-12-20T00:23:32;122.13;;;60.23;;
48897;SDS011;34713;50.038;20.000;2022-12-20T00:26:09;118.97;;;59.25;;
48897;SDS011;34713;50.038;20.000;2022-12-20T00:28:32;128.18;;;57.60;;
48897;SDS011;34713;50.038;20.000;2022-12-20T00:30:59;123.92;;;56.48;;
48897;SDS011;34713;50.038;20.000;2022-12-20T00:33:27;113.17;;;58.15;;
48897;SDS011;34713;50.038;20.000;2022-12-20T00:35:54;117.67;;;58.85;;
48897;SDS011;34713;50.038;20.000;2022-12-20T00:38:21;120.00;;;57.85;;
48897;SDS011;34713;50.038;20.000;2022-12-20T00:40:59;117.97;;;57.58;;
48897;SDS011;34713;50.038;20.000;2022-12-20T00:43:33;118.93;;;58.55;;
48897;SDS011;34713;50.038;20.000;2022-12-20T00:45:59;119.30;;;58.20;;
48897;SDS011;34713;50.038;20.000;2022-12-20T00:48:26;126.30;;;62.67;;
48897;SDS011;34713;50.038;20.000;2022-12-20T00:50:56;125.80;;;62.05;;
48897;SDS011;34713;50.038;20.000;2022-12-20T00:53:26;119.95;;;58.73;;
48897;SDS011;34713;50.038;20.000;2022-12-20T00:55:52;124.12;;;61.33;;
48897;SDS011;34713;50.038;20.000;2022-12-20T00:58:21;126.85;;;62.13;;
48897;SDS011;34713;50.038;20.000;2022-12-20T01:00:46;136.70;;;65.10;;
48897;SDS011;34713;50.038;20.000;2022-12-20T01:03:13;127.60;;;62.13;;
48897;SDS011;34713;50.038;20.000;2022-12-20T01:05:39;127.55;;;63.28;;
48897;SDS011;34713;50.038;20.000;2022-12-20T01:08:05;121.53;;;61.13;;
48897;SDS011;34713;50.038;20.000;2022-12-20T01:10:31;125.22;;;62.05;;
48897;SDS011;34713;50.038;20.000;2022-12-20T01:12:58;131.65;;;62.67;;
48897;SDS011;34713;50.038;20.000;2022-12-20T01:15:23;121.70;;;61.33;;
48897;SDS011;34713;50.038;20.000;2022-12-20T01:17:49;132.12;;;63.70;;
48897;SDS011;34713;50.038;20.000;2022-12-20T01:20:16;127.90;;;61.98;;
48897;SDS011;34713;50.038;20.000;2022-12-20T01:22:42;131.72;;;64.05;;
48897;SDS011;34713;50.038;20.000;2022-12-20T01:25:08;127.27;;;62.03;;
48897;SDS011;34713;50.038;20.000;2022-12-20T01:27:34;124.60;;;62.00;;
48897;SDS011;34713;50.038;20.000;2022-12-20T01:29:59;128.85;;;62.43;;
48897;SDS011;34713;50.038;20.000;2022-12-20T01:32:25;123.45;;;62.58;;
48897;SDS011;34713;50.038;20.000;2022-12-20T01:34:52;124.60;;;62.20;;
48897;SDS011;34713;50.038;20.000;2022-12-20T01:37:18;125.45;;;60.73;;
48897;SDS011;34713;50.038;20.000;2022-12-20T01:39:44;132.30;;;64.00;;
48897;SDS011;34713;50.038;20.000;2022-12-20T01:42:13;121.65;;;62.85;;
48897;SDS011;34713;50.038;20.000;2022-12-20T01:47:11;124.05;;;62.65;;
48897;SDS011;34713;50.038;20.000;2022-12-20T01:49:39;129.03;;;63.60;;
48897;SDS011;34713;50.038;20.000;2022-12-20T01:52:17;133.87;;;61.90;;
48897;SDS011;34713;50.038;20.000;2022-12-20T01:57:21;130.97;;;63.28;;
48897;SDS011;34713;50.038;20.000;2022-12-20T01:59:54;120.40;;;60.25;;
48897;SDS011;34713;50.038;20.000;2022-12-20T02:02:20;118.85;;;61.15;;
48897;SDS011;34713;50.038;20.000;2022-12-20T02:04:47;135.03;;;62.55;;
48897;SDS011;34713;50.038;20.000;2022-12-20T02:07:14;126.02;;;63.73;;
48897;SDS011;34713;50.038;20.000;2022-12-20T02:09:44;123.75;;;64.92;;
48897;SDS011;34713;50.038;20.000;2022-12-20T02:12:10;133.03;;;64.95;;
48897;SDS011;34713;50.038;20.000;2022-12-20T02:26:58;120.92;;;61.98;;
48897;SDS011;34713;50.038;20.000;2022-12-20T02:29:32;130.03;;;62.43;;
48897;SDS011;34713;50.038;20.000;2022-12-20T02:32:32;127.42;;;60.92;;
48897;SDS011;34713;50.038;20.000;2022-12-20T02:35:08;123.65;;;61.88;;
48897;SDS011;34713;50.038;20.000;2022-12-20T02:37:45;123.80;;;62.10;;
48897;SDS011;34713;50.038;20.000;2022-12-20T02:40:25;120.08;;;60.30;;
48897;SDS011;34713;50.038;20.000;2022-12-20T02:42:53;120.57;;;62.30;;
48897;SDS011;34713;50.038;20.000;2022-12-20T02:45:26;127.50;;;62.37;;
48897;SDS011;34713;50.038;20.000;2022-12-20T02:48:00;126.87;;;61.85;;
48897;SDS011;34713;50.038;20.000;2022-12-20T02:50:34;123.58;;;62.48;;
48897;SDS011;34713;50.038;20.000;2022-12-20T02:53:06;122.10;;;60.40;;
48897;SDS011;34713;50.038;20.000;2022-12-20T02:55:49;122.78;;;61.28;;
48897;SDS011;34713;50.038;20.000;2022-12-20T02:58:46;129.63;;;60.00;;
48897;SDS011;34713;50.038;20.000;2022-12-20T03:01:26;119.10;;;58.52;;
48897;SDS011;34713;50.038;20.000;2022-12-20T03:03:56;129.87;;;64.10;;
48897;SDS011;34713;50.038;20.000;2022-12-20T03:06:23;124.72;;;61.73;;
48897;SDS011;34713;50.038;20.000;2022-12-20T03:08:49;121.47;;;61.77;;
48897;SDS011;34713;50.038;20.000;2022-12-20T03:11:14;128.85;;;63.60;;
48897;SDS011;34713;50.038;20.000;2022-12-20T03:13:40;122.90;;;64.27;;
48897;SDS011;34713;50.038;20.000;2022-12-20T03:16:06;125.58;;;63.78;;
48897;SDS011;34713;50.038;20.000;2022-12-20T03:18:34;127.00;;;62.35;;
48897;SDS011;34713;50.038;20.000;2022-12-20T03:21:00;129.42;;;65.57;;
48897;SDS011;34713;50.038;20.000;2022-12-20T03:23:26;117.35;;;60.05;;
48897;SDS011;34713;50.038;20.000;2022-12-20T03:25:52;130.78;;;63.80;;
48897;SDS011;34713;50.038;20.000;2022-12-20T03:28:18;123.92;;;62.20;;
48897;SDS011;34713;50.038;20.000;2022-12-20T03:30:43;122.60;;;62.33;;
48897;SDS011;34713;50.038;20.000;2022-12-20T03:33:10;120.02;;;60.65;;
48897;SDS011;34713;50.038;20.000;2022-12-20T03:35:35;128.32;;;64.90;;
48897;SDS011;34713;50.038;20.000;2022-12-20T03:38:01;128.42;;;63.33;;
48897;SDS011;34713;50.038;20.000;2022-12-20T03:40:27;129.27;;;64.20;;
48897;SDS011;34713;50.038;20.000;2022-12-20T03:42:53;135.52;;;67.03;;
48897;SDS011;34713;50.038;20.000;2022-12-20T03:45:19;125.22;;;61.58;;
48897;SDS011;34713;50.038;20.000;2022-12-20T03:47:44;127.90;;;64.45;;
48897;SDS011;34713;50.038;20.000;2022-12-20T03:50:10;131.40;;;63.85;;
48897;SDS011;34713;50.038;20.000;2022-12-20T03:52:36;127.15;;;64.17;;
48897;SDS011;34713;50.038;20.000;2022-12-20T03:55:02;126.27;;;63.40;;
48897;SDS011;34713;50.038;20.000;2022-12-20T03:57:29;124.35;;;62.85;;
48897;SDS011;34713;50.038;20.000;2022-12-20T03:59:55;118.45;;;60.92;;
48897;SDS011;34713;50.038;20.000;2022-12-20T04:02:21;123.97;;;62.70;;
48897;SDS011;34713;50.038;20.000;2022-12-20T04:04:47;126.22;;;64.65;;
48897;SDS011;34713;50.038;20.000;2022-12-20T04:07:13;125.75;;;63.15;;
48897;SDS011;34713;50.038;20.000;2022-12-20T04:09:40;125.58;;;63.38;;
48897;SDS011;34713;50.038;20.000;2022-12-20T04:12:05;129.53;;;64.53;;
48897;SDS011;34713;50.038;20.000;2022-12-20T04:14:31;124.35;;;61.15;;
48897;SDS011;34713;50.038;20.000;2022-12-20T04:16:57;123.40;;;62.27;;
48897;SDS011;34713;50.038;20.000;2022-12-20T04:19:23;123.62;;;62.62;;
48897;SDS011;34713;50.038;20.000;2022-12-20T04:21:49;126.00;;;62.95;;
48897;SDS011;34713;50.038;20.000;2022-12-20T04:24:15;124.35;;;60.98;;
48897;SDS011;34713;50.038;20.000;2022-12-20T04:26:41;118.47;;;61.65;;
48897;SDS011;34713;50.038;20.000;2022-12-20T04:29:07;129.57;;;62.90;;
48897;SDS011;34713;50.038;20.000;2022-12-20T04:31:33;118.62;;;61.25;;
48897;SDS011;34713;50.038;20.000;2022-12-20T04:33:58;123.97;;;61.90;;
48897;SDS011;34713;50.038;20.000;2022-12-20T04:36:24;131.10;;;64.17;;
48897;SDS011;34713;50.038;20.000;2022-12-20T04:38:50;123.72;;;62.23;;
48897;SDS011;34713;50.038;20.000;2022-12-20T04:41:16;129.00;;;63.95;;
48897;SDS011;34713;50.038;20.000;2022-12-20T04:43:56;131.00;;;66.45;;
48897;SDS011;34713;50.038;20.000;2022-12-20T04:46:21;126.10;;;63.17;;
48897;SDS011;34713;50.038;20.000;2022-12-20T04:48:49;124.45;;;63.80;;
48897;SDS011;34713;50.038;20.000;2022-12-20T04:51:15;129.12;;;63.25;;
48897;SDS011;34713;50.038;20.000;2022-12-20T04:53:41;120.65;;;61.58;;
48897;SDS011;34713;50.038;20.000;2022-12-20T04:56:14;124.85;;;64.47;;
48897;SDS011;34713;50.038;20.000;2022-12-20T04:58:44;126.30;;;65.72;;
48897;SDS011;34713;50.038;20.000;2022-12-20T05:01:10;125.62;;;63.20;;
48897;SDS011;34713;50.038;20.000;2022-12-20T05:03:36;121.02;;;61.20;;
48897;SDS011;34713;50.038;20.000;2022-12-20T05:06:03;124.40;;;64.53;;
48897;SDS011;34713;50.038;20.000;2022-12-20T05:08:30;125.90;;;62.58;;
48897;SDS011;34713;50.038;20.000;2022-12-20T05:10:56;119.55;;;62.67;;
48897;SDS011;34713;50.038;20.000;2022-12-20T05:13:22;122.62;;;61.02;;
48897;SDS011;34713;50.038;20.000;2022-12-20T05:15:51;111.17;;;59.70;;
48897;SDS011;34713;50.038;20.000;2022-12-20T05:18:18;120.45;;;58.35;;
48897;SDS011;34713;50.038;20.000;2022-12-20T05:20:45;116.73;;;59.77;;
48897;SDS011;34713;50.038;20.000;2022-12-20T05:23:11;123.50;;;62.58;;
48897;SDS011;34713;50.038;20.000;2022-12-20T05:25:55;120.00;;;64.12;;
48897;SDS011;34713;50.038;20.000;2022-12-20T05:28:39;118.67;;;62.17;;
48897;SDS011;34713;50.038;20.000;2022-12-20T05:31:05;116.05;;;62.30;;
48897;SDS011;34713;50.038;20.000;2022-12-20T05:33:31;120.82;;;60.03;;
48897;SDS011;34713;50.038;20.000;2022-12-20T05:35:57;125.67;;;63.65;;
48897;SDS011;34713;50.038;20.000;2022-12-20T05:38:23;133.40;;;64.17;;
48897;SDS011;34713;50.038;20.000;2022-12-20T05:40:49;124.30;;;62.85;;
48897;SDS011;34713;50.038;20.000;2022-12-20T05:43:16;122.22;;;61.10;;
48897;SDS011;34713;50.038;20.000;2022-12-20T05:45:46;128.42;;;64.60;;
48897;SDS011;34713;50.038;20.000;2022-12-20T05:48:14;118.20;;;61.53;;
48897;SDS011;34713;50.038;20.000;2022-12-20T05:50:41;121.80;;;62.38;;
48897;SDS011;34713;50.038;20.000;2022-12-20T05:53:10;124.33;;;66.10;;
48897;SDS011;34713;50.038;20.000;2022-12-20T05:55:37;128.12;;;66.10;;
48897;SDS011;34713;50.038;20.000;2022-12-20T05:58:05;125.30;;;63.92;;
48897;SDS011;34713;50.038;20.000;2022-12-20T06:00:32;120.15;;;63.13;;
48897;SDS011;34713;50.038;20.000;2022-12-20T06:02:58;103.02;;;56.00;;
48897;SDS011;34713;50.038;20.000;2022-12-20T06:05:24;126.72;;;63.75;;
48897;SDS011;34713;50.038;20.000;2022-12-20T06:07:50;122.72;;;64.35;;
48897;SDS011;34713;50.038;20.000;2022-12-20T06:10:16;126.42;;;65.00;;
48897;SDS011;34713;50.038;20.000;2022-12-20T06:12:41;127.53;;;64.32;;
48897;SDS011;34713;50.038;20.000;2022-12-20T06:15:07;127.25;;;67.45;;
48897;SDS011;34713;50.038;20.000;2022-12-20T06:17:35;133.90;;;68.72;;
48897;SDS011;34713;50.038;20.000;2022-12-20T06:20:00;141.32;;;71.25;;
48897;SDS011;34713;50.038;20.000;2022-12-20T06:22:26;152.32;;;76.35;;
48897;SDS011;34713;50.038;20.000;2022-12-20T06:24:52;141.35;;;73.45;;
48897;SDS011;34713;50.038;20.000;2022-12-20T06:27:18;151.32;;;77.58;;
48897;SDS011;34713;50.038;20.000;2022-12-20T06:29:46;158.60;;;80.55;;
48897;SDS011;34713;50.038;20.000;2022-12-20T06:32:13;149.75;;;78.57;;
48897;SDS011;34713;50.038;20.000;2022-12-20T06:34:39;156.12;;;78.87;;
48897;SDS011;34713;50.038;20.000;2022-12-20T06:37:05;159.78;;;80.47;;
48897;SDS011;34713;50.038;20.000;2022-12-20T06:39:30;151.47;;;79.90;;
48897;SDS011;34713;50.038;20.000;2022-12-20T06:41:56;162.62;;;81.72;;
48897;SDS011;34713;50.038;20.000;2022-12-20T06:44:22;162.60;;;81.50;;
48897;SDS011;34713;50.038;20.000;2022-12-20T06:46:47;160.85;;;82.55;;
48897;SDS011;34713;50.038;20.000;2022-12-20T06:49:13;167.72;;;83.97;;
48897;SDS011;34713;50.038;20.000;2022-12-20T06:51:39;161.82;;;84.28;;
48897;SDS011;34713;50.038;20.000;2022-12-20T06:54:05;156.75;;;81.42;;
48897;SDS011;34713;50.038;20.000;2022-12-20T06:56:31;158.52;;;81.87;;
48897;SDS011;34713;50.038;20.000;2022-12-20T06:58:56;154.72;;;80.57;;
48897;SDS011;34713;50.038;20.000;2022-12-20T07:01:22;143.68;;;76.57;;
48897;SDS011;34713;50.038;20.000;2022-12-20T07:03:48;149.82;;;75.75;;
48897;SDS011;34713;50.038;20.000;2022-12-20T07:06:13;149.65;;;72.85;;
48897;SDS011;34713;50.038;20.000;2022-12-20T07:08:39;136.35;;;70.65;;
48897;SDS011;34713;50.038;20.000;2022-12-20T07:11:05;128.15;;;67.92;;
48897;SDS011;34713;50.038;20.000;2022-12-20T07:13:33;120.42;;;64.15;;
48897;SDS011;34713;50.038;20.000;2022-12-20T07:16:00;122.50;;;64.27;;
48897;SDS011;34713;50.038;20.000;2022-12-20T07:18:27;124.07;;;63.42;;
48897;SDS011;34713;50.038;20.000;2022-12-20T07:20:53;120.57;;;62.30;;
48897;SDS011;34713;50.038;20.000;2022-12-20T07:23:25;126.62;;;63.95;;
48897;SDS011;34713;50.038;20.000;2022-12-20T07:25:59;115.28;;;60.28;;
48897;SDS011;34713;50.038;20.000;2022-12-20T07:28:25;117.72;;;59.50;;
48897;SDS011;34713;50.038;20.000;2022-12-20T07:30:52;109.85;;;57.15;;
48897;SDS011;34713;50.038;20.000;2022-12-20T07:33:18;112.80;;;58.58;;
48897;SDS011;34713;50.038;20.000;2022-12-20T07:35:44;112.68;;;57.00;;
48897;SDS011;34713;50.038;20.000;2022-12-20T07:38:11;104.85;;;56.83;;
48897;SDS011;34713;50.038;20.000;2022-12-20T07:40:41;114.82;;;59.80;;
48897;SDS011;34713;50.038;20.000;2022-12-20T07:43:08;106.37;;;57.27;;
48897;SDS011;34713;50.038;20.000;2022-12-20T07:45:34;113.42;;;58.05;;
48897;SDS011;34713;50.038;20.000;2022-12-20T07:48:02;113.57;;;61.58;;
48897;SDS011;34713;50.038;20.000;2022-12-20T07:50:29;114.72;;;62.20;;
48897;SDS011;34713;50.038;20.000;2022-12-20T07:52:57;120.47;;;64.67;;
48897;SDS011;34713;50.038;20.000;2022-12-20T07:55:23;122.45;;;64.92;;
48897;SDS011;34713;50.038;20.000;2022-12-20T07:57:51;126.82;;;65.47;;
48897;SDS011;34713;50.038;20.000;2022-12-20T08:00:20;122.60;;;65.03;;
48897;SDS011;34713;50.038;20.000;2022-12-20T08:02:48;120.17;;;63.33;;
48897;SDS011;34713;50.038;20.000;2022-12-20T08:05:23;125.50;;;65.42;;
48897;SDS011;34713;50.038;20.000;2022-12-20T08:07:49;121.50;;;62.50;;
48897;SDS011;34713;50.038;20.000;2022-12-20T08:10:15;113.92;;;61.88;;
48897;SDS011;34713;50.038;20.000;2022-12-20T08:12:43;118.93;;;63.65;;
48897;SDS011;34713;50.038;20.000;2022-12-20T08:15:12;112.65;;;61.40;;
48897;SDS011;34713;50.038;20.000;2022-12-20T08:17:38;121.17;;;63.92;;
48897;SDS011;34713;50.038;20.000;2022-12-20T08:20:04;115.75;;;64.15;;
48897;SDS011;34713;50.038;20.000;2022-12-20T08:22:33;118.95;;;64.17;;
48897;SDS011;34713;50.038;20.000;2022-12-20T08:24:59;128.60;;;66.02;;
48897;SDS011;34713;50.038;20.000;2022-12-20T08:27:25;117.00;;;64.12;;
48897;SDS011;34713;50.038;20.000;2022-12-20T08:29:53;121.20;;;65.30;;
48897;SDS011;34713;50.038;20.000;2022-12-20T08:32:21;120.00;;;63.38;;
48897;SDS011;34713;50.038;20.000;2022-12-20T08:34:46;115.55;;;61.58;;
48897;SDS011;34713;50.038;20.000;2022-12-20T08:37:14;109.03;;;60.48;;
48897;SDS011;34713;50.038;20.000;2022-12-20T08:39:43;103.25;;;57.62;;
48897;SDS011;34713;50.038;20.000;2022-12-20T08:42:09;106.65;;;57.58;;
48897;SDS011;34713;50.038;20.000;2022-12-20T08:44:36;103.67;;;56.75;;
48897;SDS011;34713;50.038;20.000;2022-12-20T08:47:02;107.70;;;58.25;;
48897;SDS011;34713;50.038;20.000;2022-12-20T08:49:27;106.37;;;55.00;;
48897;SDS011;34713;50.038;20.000;2022-12-20T08:51:53;102.90;;;56.30;;
48897;SDS011;34713;50.038;20.000;2022-12-20T08:54:19;104.90;;;55.08;;
48897;SDS011;34713;50.038;20.000;2022-12-20T08:56:45;95.95;;;54.20;;
48897;SDS011;34713;50.038;20.000;2022-12-20T08:59:11;100.60;;;53.60;;
48897;SDS011;34713;50.038;20.000;2022-12-20T09:01:37;96.67;;;52.73;;
48897;SDS011;34713;50.038;20.000;2022-12-20T09:04:03;92.92;;;49.80;;
48897;SDS011;34713;50.038;20.000;2022-12-20T09:06:29;86.55;;;49.23;;
48897;SDS011;34713;50.038;20.000;2022-12-20T09:08:54;88.75;;;46.98;;
48897;SDS011;34713;50.038;20.000;2022-12-20T09:11:25;85.50;;;47.80;;
48897;SDS011;34713;50.038;20.000;2022-12-20T09:13:50;82.35;;;45.98;;
48897;SDS011;34713;50.038;20.000;2022-12-20T09:16:20;78.50;;;44.80;;
48897;SDS011;34713;50.038;20.000;2022-12-20T09:18:48;72.65;;;40.23;;
48897;SDS011;34713;50.038;20.000;2022-12-20T09:21:16;72.22;;;40.63;;
48897;SDS011;34713;50.038;20.000;2022-12-20T09:23:43;69.35;;;38.48;;
48897;SDS011;34713;50.038;20.000;2022-12-20T09:26:13;67.97;;;37.88;;
48897;SDS011;34713;50.038;20.000;2022-12-20T09:28:40;64.17;;;36.17;;
48897;SDS011;34713;50.038;20.000;2022-12-20T09:31:12;63.35;;;34.43;;
48897;SDS011;34713;50.038;20.000;2022-12-20T09:33:41;60.88;;;34.23;;
48897;SDS011;34713;50.038;20.000;2022-12-20T09:36:11;60.23;;;33.88;;
48897;SDS011;34713;50.038;20.000;2022-12-20T09:38:42;56.65;;;31.60;;
48897;SDS011;34713;50.038;20.000;2022-12-20T09:44:11;63.05;;;34.95;;
48897;SDS011;34713;50.038;20.000;2022-12-20T09:46:50;61.83;;;33.83;;
48897;SDS011;34713;50.038;20.000;2022-12-20T09:49:33;65.40;;;35.65;;
48897;SDS011;34713;50.038;20.000;2022-12-20T09:55:02;62.20;;;36.48;;
48897;SDS011;34713;50.038;20.000;2022-12-20T10:00:45;65.15;;;35.95;;
48897;SDS011;34713;50.038;20.000;2022-12-20T10:03:12;63.58;;;36.42;;
48897;SDS011;34713;50.038;20.000;2022-12-20T10:05:53;61.92;;;35.68;;
48897;SDS011;34713;50.038;20.000;2022-12-20T10:11:02;63.33;;;36.25;;
48897;SDS011;34713;50.038;20.000;2022-12-20T10:13:35;62.98;;;35.10;;
48897;SDS011;34713;50.038;20.000;2022-12-20T10:24:18;63.38;;;37.98;;
48897;SDS011;34713;50.038;20.000;2022-12-20T10:26:48;70.95;;;39.85;;
48897;SDS011;34713;50.038;20.000;2022-12-20T10:29:16;65.87;;;37.13;;
48897;SDS011;34713;50.038;20.000;2022-12-20T10:31:43;62.00;;;35.30;;
48897;SDS011;34713;50.038;20.000;2022-12-20T10:34:09;62.73;;;36.20;;
48897;SDS011;34713;50.038;20.000;2022-12-20T10:36:35;63.52;;;36.45;;
48897;SDS011;34713;50.038;20.000;2022-12-20T10:39:05;67.78;;;36.23;;
48897;SDS011;34713;50.038;20.000;2022-12-20T10:46:55;66.45;;;36.03;;
48897;SDS011;34713;50.038;20.000;2022-12-20T10:49:37;73.07;;;38.98;;
48897;SDS011;34713;50.038;20.000;2022-12-20T10:54:39;70.05;;;40.08;;
48897;SDS011;34713;50.038;20.000;2022-12-20T11:05:02;77.37;;;41.13;;
48897;SDS011;34713;50.038;20.000;2022-12-20T11:07:35;70.83;;;40.78;;
48897;SDS011;34713;50.038;20.000;2022-12-20T11:10:19;75.47;;;42.90;;
48897;SDS011;34713;50.038;20.000;2022-12-20T11:12:57;75.85;;;43.25;;
48897;SDS011;34713;50.038;20.000;2022-12-20T11:15:30;75.08;;;43.50;;
48897;SDS011;34713;50.038;20.000;2022-12-20T11:18:03;77.08;;;42.43;;
48897;SDS011;34713;50.038;20.000;2022-12-20T11:20:37;74.92;;;41.70;;
48897;SDS011;34713;50.038;20.000;2022-12-20T11:23:28;72.87;;;42.23;;
48897;SDS011;34713;50.038;20.000;2022-12-20T11:40:33;70.80;;;39.60;;
48897;SDS011;34713;50.038;20.000;2022-12-20T11:43:19;71.30;;;39.00;;
48897;SDS011;34713;50.038;20.000;2022-12-20T11:45:58;73.65;;;40.35;;
48897;SDS011;34713;50.038;20.000;2022-12-20T11:51:41;68.55;;;38.73;;
48897;SDS011;34713;50.038;20.000;2022-12-20T11:54:11;68.30;;;38.73;;
48897;SDS011;34713;50.038;20.000;2022-12-20T11:57:02;68.22;;;37.35;;
48897;SDS011;34713;50.038;20.000;2022-12-20T11:59:34;65.60;;;37.73;;
48897;SDS011;34713;50.038;20.000;2022-12-20T12:02:27;63.17;;;36.45;;
48897;SDS011;34713;50.038;20.000;2022-12-20T12:05:05;64.15;;;36.55;;
48897;SDS011;34713;50.038;20.000;2022-12-20T12:07:34;60.95;;;34.88;;
48897;SDS011;34713;50.038;20.000;2022-12-20T12:13:00;62.23;;;34.60;;
48897;SDS011;34713;50.038;20.000;2022-12-20T12:18:28;56.68;;;32.95;;
48897;SDS011;34713;50.038;20.000;2022-12-20T12:24:28;57.83;;;32.83;;
48897;SDS011;34713;50.038;20.000;2022-12-20T12:26:41;58.70;;;33.83;;
48897;SDS011;34713;50.038;20.000;2022-12-20T12:44:07;60.98;;;32.80;;
48897;SDS011;34713;50.038;20.000;2022-12-20T12:46:21;60.98;;;34.53;;
48897;SDS011;34713;50.038;20.000;2022-12-20T12:48:59;60.65;;;31.93;;
48897;SDS011;34713;50.038;20.000;2022-12-20T12:51:34;58.45;;;31.75;;
48897;SDS011;34713;50.038;20.000;2022-12-20T12:54:26;61.95;;;33.98;;
48897;SDS011;34713;50.038;20.000;2022-12-20T12:56:52;60.10;;;31.85;;
48897;SDS011;34713;50.038;20.000;2022-12-20T13:07:27;60.52;;;32.45;;
48897;SDS011;34713;50.038;20.000;2022-12-20T13:20:26;55.83;;;30.77;;
48897;SDS011;34713;50.038;20.000;2022-12-20T13:25:48;59.55;;;33.90;;
48897;SDS011;34713;50.038;20.000;2022-12-20T13:39:27;55.85;;;31.55;;
48897;SDS011;34713;50.038;20.000;2022-12-20T13:41:50;55.52;;;30.92;;
48897;SDS011;34713;50.038;20.000;2022-12-20T13:49:53;60.63;;;32.17;;
48897;SDS011;34713;50.038;20.000;2022-12-20T13:52:26;58.95;;;32.53;;
48897;SDS011;34713;50.038;20.000;2022-12-20T13:54:58;60.28;;;32.78;;
48897;SDS011;34713;50.038;20.000;2022-12-20T13:57:41;60.65;;;31.90;;
48897;SDS011;34713;50.038;20.000;2022-12-20T14:00:23;57.15;;;32.42;;
48897;SDS011;34713;50.038;20.000;2022-12-20T14:02:51;58.05;;;32.28;;
48897;SDS011;34713;50.038;20.000;2022-12-20T14:05:24;59.35;;;32.48;;
48897;SDS011;34713;50.038;20.000;2022-12-20T14:07:55;59.77;;;32.58;;
48897;SDS011;34713;50.038;20.000;2022-12-20T14:10:28;60.08;;;33.38;;
48897;SDS011;34713;50.038;20.000;2022-12-20T14:12:56;62.13;;;31.97;;
48897;SDS011;34713;50.038;20.000;2022-12-20T14:15:27;63.17;;;33.98;;
48897;SDS011;34713;50.038;20.000;2022-12-20T14:18:18;58.92;;;32.25;;
48897;SDS011;34713;50.038;20.000;2022-12-20T14:20:45;64.82;;;33.80;;
48897;SDS011;34713;50.038;20.000;2022-12-20T14:23:21;59.63;;;32.53;;
48897;SDS011;34713;50.038;20.000;2022-12-20T14:31:26;59.00;;;32.70;;
48897;SDS011;34713;50.038;20.000;2022-12-20T14:36:40;63.13;;;32.73;;
48897;SDS011;34713;50.038;20.000;2022-12-20T14:39:24;65.42;;;33.92;;
48897;SDS011;34713;50.038;20.000;2022-12-20T14:42:11;64.03;;;32.67;;
48897;SDS011;34713;50.038;20.000;2022-12-20T14:44:36;62.05;;;34.45;;
48897;SDS011;34713;50.038;20.000;2022-12-20T14:49:50;62.50;;;33.13;;
48897;SDS011;34713;50.038;20.000;2022-12-20T14:54:58;67.50;;;35.70;;
48897;SDS011;34713;50.038;20.000;2022-12-20T14:57:31;69.22;;;35.17;;
48897;SDS011;34713;50.038;20.000;2022-12-20T15:02:56;62.38;;;33.50;;
48897;SDS011;34713;50.038;20.000;2022-12-20T15:05:44;65.12;;;35.38;;
48897;SDS011;34713;50.038;20.000;2022-12-20T15:11:17;62.90;;;33.25;;
48897;SDS011;34713;50.038;20.000;2022-12-20T15:13:46;60.83;;;33.02;;
48897;SDS011;34713;50.038;20.000;2022-12-20T15:16:16;62.62;;;36.13;;
48897;SDS011;34713;50.038;20.000;2022-12-20T15:18:52;64.45;;;35.43;;
48897;SDS011;34713;50.038;20.000;2022-12-20T15:21:39;65.05;;;33.08;;
48897;SDS011;34713;50.038;20.000;2022-12-20T15:24:19;63.25;;;35.30;;
48897;SDS011;34713;50.038;20.000;2022-12-20T15:26:49;64.25;;;32.75;;
48897;SDS011;34713;50.038;20.000;2022-12-20T15:29:16;65.67;;;35.13;;
48897;SDS011;34713;50.038;20.000;2022-12-20T15:31:45;67.50;;;36.08;;
48897;SDS011;34713;50.038;20.000;2022-12-20T15:34:14;63.98;;;35.55;;
48897;SDS011;34713;50.038;20.000;2022-12-20T15:36:52;71.87;;;36.15;;
48897;SDS011;34713;50.038;20.000;2022-12-20T15:39:18;71.57;;;37.55;;
48897;SDS011;34713;50.038;20.000;2022-12-20T15:41:46;64.95;;;37.35;;
48897;SDS011;34713;50.038;20.000;2022-12-20T15:44:15;71.40;;;36.45;;
48897;SDS011;34713;50.038;20.000;2022-12-20T15:46:47;71.10;;;36.35;;
48897;SDS011;34713;50.038;20.000;2022-12-20T15:49:20;74.15;;;38.25;;
48897;SDS011;34713;50.038;20.000;2022-12-20T15:51:50;70.35;;;38.33;;
48897;SDS011;34713;50.038;20.000;2022-12-20T15:54:25;71.85;;;40.70;;
48897;SDS011;34713;50.038;20.000;2022-12-20T15:56:58;68.87;;;37.10;;
48897;SDS011;34713;50.038;20.000;2022-12-20T15:59:27;67.97;;;37.58;;
48897;SDS011;34713;50.038;20.000;2022-12-20T16:01:54;71.07;;;37.50;;
48897;SDS011;34713;50.038;20.000;2022-12-20T16:04:20;72.50;;;39.10;;
48897;SDS011;34713;50.038;20.000;2022-12-20T16:06:48;69.27;;;38.08;;
48897;SDS011;34713;50.038;20.000;2022-12-20T16:09:17;72.05;;;38.45;;
48897;SDS011;34713;50.038;20.000;2022-12-20T16:11:43;66.77;;;36.30;;
48897;SDS011;34713;50.038;20.000;2022-12-20T16:14:13;71.53;;;37.55;;
48897;SDS011;34713;50.038;20.000;2022-12-20T16:16:42;70.05;;;37.60;;
48897;SDS011;34713;50.038;20.000;2022-12-20T16:19:09;70.08;;;36.85;;
48897;SDS011;34713;50.038;20.000;2022-12-20T16:21:45;71.40;;;36.93;;
48897;SDS011;34713;50.038;20.000;2022-12-20T16:24:15;75.70;;;38.55;;
48897;SDS011;34713;50.038;20.000;2022-12-20T16:26:44;71.65;;;36.65;;
48897;SDS011;34713;50.038;20.000;2022-12-20T16:29:13;70.92;;;39.08;;
48897;SDS011;34713;50.038;20.000;2022-12-20T16:31:39;73.33;;;38.55;;
48897;SDS011;34713;50.038;20.000;2022-12-20T16:34:14;69.92;;;38.95;;
48897;SDS011;34713;50.038;20.000;2022-12-20T16:36:41;73.25;;;38.60;;
48897;SDS011;34713;50.038;20.000;2022-12-20T16:39:08;70.50;;;37.75;;
48897;SDS011;34713;50.038;20.000;2022-12-20T16:41:34;73.52;;;37.65;;
48897;SDS011;34713;50.038;20.000;2022-12-20T16:44:02;69.45;;;38.28;;
48897;SDS011;34713;50.038;20.000;2022-12-20T16:46:29;68.70;;;37.17;;